sensor_id;sensor_type;location;lat;lon;timestamp;P1;durP1;ratioP1;P2;durP2;ratioP2
44078;SDS011;29744;49.078;12.878;2022-11-20T00:03:59;2.35;;;1.40;;
44078;SDS011;29744;49.078;12.878;2022-11-20T00:09:00;2.13;;;1.20;;
44078;SDS011;29744;49.078;12.878;2022-11-20T00:14:01;2.10;;;1.30;;
44078;SDS011;29744;49.078;12.878;2022-11-20T00:19:02;2.00;;;1.23;;
44078;SDS011;29744;49.078;12.878;2022-11-20T00:24:02;1.90;;;1.25;;
44078;SDS011;29744;49.078;12.878;2022-11-20T00:29:03;1.58;;;1.05;;
44078;SDS011;29744;49.078;12.878;2022-11-20T00:34:03;2.33;;;1.42;;
44078;SDS011;29744;49.078;12.878;2022-11-20T00:39:04;2.47;;;1.30;;
44078;SDS011;29744;49.078;12.878;2022-11-20T00:44:04;2.08;;;1.20;;
44078;SDS011;29744;49.078;12.878;2022-11-20T00:49:04;2.53;;;1.63;;
44078;SDS011;29744;49.078;12.878;2022-11-20T00:54:05;2.80;;;1.48;;
44078;SDS011;29744;49.078;12.878;2022-11-20T00:59:05;1.77;;;1.08;;
44078;SDS011;29744;49.078;12.878;2022-11-20T01:04:05;2.20;;;1.30;;
44078;SDS011;29744;49.078;12.878;2022-11-20T01:09:14;1.98;;;1.33;;
44078;SDS011;29744;49.078;12.878;2022-11-20T01:14:16;2.47;;;1.33;;
44078;SDS011;29744;49.078;12.878;2022-11-20T01:19:19;1.90;;;1.20;;
44078;SDS011;29744;49.078;12.878;2022-11-20T01:24:21;2.35;;;1.30;;
44078;SDS011;29744;49.078;12.878;2022-11-20T01:29:22;2.13;;;1.23;;
44078;SDS011;29744;49.078;12.878;2022-11-20T01:34:24;2.10;;;1.20;;
44078;SDS011;29744;49.078;12.878;2022-11-20T01:39:25;1.90;;;1.30;;
44078;SDS011;29744;49.078;12.878;2022-11-20T01:49:56;2.00;;;1.17;;
44078;SDS011;29744;49.078;12.878;2022-11-20T01:55:03;1.83;;;1.17;;
44078;SDS011;29744;49.078;12.878;2022-11-20T02:00:09;2.33;;;1.30;;
44078;SDS011;29744;49.078;12.878;2022-11-20T02:05:16;2.20;;;1.27;;
44078;SDS011;29744;49.078;12.878;2022-11-20T02:10:23;2.63;;;1.40;;
44078;SDS011;29744;49.078;12.878;2022-11-20T02:15:23;2.15;;;1.23;;
44078;SDS011;29744;49.078;12.878;2022-11-20T02:20:24;2.10;;;1.30;;
44078;SDS011;29744;49.078;12.878;2022-11-20T02:25:24;1.95;;;1.20;;
44078;SDS011;29744;49.078;12.878;2022-11-20T02:30:27;1.77;;;1.15;;
44078;SDS011;29744;49.078;12.878;2022-11-20T02:40:28;2.00;;;1.20;;
44078;SDS011;29744;49.078;12.878;2022-11-20T02:45:29;2.15;;;1.20;;
44078;SDS011;29744;49.078;12.878;2022-11-20T02:50:29;2.17;;;1.38;;
44078;SDS011;29744;49.078;12.878;2022-11-20T02:55:30;2.33;;;1.15;;
44078;SDS011;29744;49.078;12.878;2022-11-20T03:00:30;2.03;;;1.40;;
44078;SDS011;29744;49.078;12.878;2022-11-20T03:05:31;2.55;;;1.40;;
44078;SDS011;29744;49.078;12.878;2022-11-20T03:10:32;2.13;;;1.20;;
44078;SDS011;29744;49.078;12.878;2022-11-20T03:15:32;2.08;;;1.27;;
44078;SDS011;29744;49.078;12.878;2022-11-20T03:20:33;2.03;;;1.25;;
44078;SDS011;29744;49.078;12.878;2022-11-20T03:25:33;2.28;;;1.30;;
44078;SDS011;29744;49.078;12.878;2022-11-20T03:30:34;2.22;;;1.20;;
44078;SDS011;29744;49.078;12.878;2022-11-20T03:35:34;2.00;;;1.20;;
44078;SDS011;29744;49.078;12.878;2022-11-20T03:40:35;2.20;;;1.38;;
44078;SDS011;29744;49.078;12.878;2022-11-20T03:45:35;2.55;;;1.40;;
44078;SDS011;29744;49.078;12.878;2022-11-20T03:50:35;2.63;;;1.33;;
44078;SDS011;29744;49.078;12.878;2022-11-20T03:55:36;1.65;;;1.17;;
44078;SDS011;29744;49.078;12.878;2022-11-20T04:00:36;1.98;;;1.10;;
44078;SDS011;29744;49.078;12.878;2022-11-20T04:05:36;1.92;;;1.20;;
44078;SDS011;29744;49.078;12.878;2022-11-20T04:10:37;2.33;;;1.30;;
44078;SDS011;29744;49.078;12.878;2022-11-20T04:15:37;1.88;;;1.30;;
44078;SDS011;29744;49.078;12.878;2022-11-20T04:20:37;2.08;;;1.33;;
44078;SDS011;29744;49.078;12.878;2022-11-20T04:25:38;2.78;;;1.50;;
44078;SDS011;29744;49.078;12.878;2022-11-20T04:30:38;2.40;;;1.30;;
44078;SDS011;29744;49.078;12.878;2022-11-20T04:35:38;2.05;;;1.38;;
44078;SDS011;29744;49.078;12.878;2022-11-20T04:40:39;2.20;;;1.23;;
44078;SDS011;29744;49.078;12.878;2022-11-20T04:45:39;2.03;;;1.10;;
44078;SDS011;29744;49.078;12.878;2022-11-20T04:50:39;2.22;;;1.30;;
44078;SDS011;29744;49.078;12.878;2022-11-20T04:55:40;1.95;;;1.30;;
44078;SDS011;29744;49.078;12.878;2022-11-20T05:00:40;2.25;;;1.25;;
44078;SDS011;29744;49.078;12.878;2022-11-20T05:05:41;1.92;;;1.27;;
44078;SDS011;29744;49.078;12.878;2022-11-20T05:10:41;1.98;;;1.20;;
44078;SDS011;29744;49.078;12.878;2022-11-20T05:15:41;1.70;;;1.08;;
44078;SDS011;29744;49.078;12.878;2022-11-20T05:20:41;2.03;;;1.20;;
44078;SDS011;29744;49.078;12.878;2022-11-20T05:25:42;1.88;;;1.10;;
44078;SDS011;29744;49.078;12.878;2022-11-20T05:30:42;1.88;;;1.10;;
44078;SDS011;29744;49.078;12.878;2022-11-20T05:35:43;2.13;;;1.10;;
44078;SDS011;29744;49.078;12.878;2022-11-20T05:40:43;2.03;;;1.10;;
44078;SDS011;29744;49.078;12.878;2022-11-20T05:45:51;1.58;;;1.00;;
44078;SDS011;29744;49.078;12.878;2022-11-20T05:50:52;2.10;;;1.10;;
44078;SDS011;29744;49.078;12.878;2022-11-20T05:56:35;1.70;;;1.20;;
44078;SDS011;29744;49.078;12.878;2022-11-20T06:01:18;1.50;;;1.00;;
44078;SDS011;29744;49.078;12.878;2022-11-20T06:06:21;1.90;;;1.02;;
44078;SDS011;29744;49.078;12.878;2022-11-20T06:11:22;1.90;;;1.08;;
44078;SDS011;29744;49.078;12.878;2022-11-20T06:16:22;1.73;;;1.00;;
44078;SDS011;29744;49.078;12.878;2022-11-20T06:21:23;1.23;;;0.90;;
44078;SDS011;29744;49.078;12.878;2022-11-20T06:26:24;1.77;;;1.10;;
44078;SDS011;29744;49.078;12.878;2022-11-20T06:31:26;1.98;;;1.10;;
44078;SDS011;29744;49.078;12.878;2022-11-20T06:36:26;2.03;;;1.20;;
44078;SDS011;29744;49.078;12.878;2022-11-20T06:41:27;1.45;;;0.98;;
44078;SDS011;29744;49.078;12.878;2022-11-20T06:46:27;1.13;;;0.82;;
44078;SDS011;29744;49.078;12.878;2022-11-20T06:51:28;1.48;;;1.10;;
44078;SDS011;29744;49.078;12.878;2022-11-20T06:56:28;1.77;;;1.20;;
44078;SDS011;29744;49.078;12.878;2022-11-20T07:01:28;1.58;;;1.00;;
44078;SDS011;29744;49.078;12.878;2022-11-20T07:06:29;2.05;;;1.27;;
44078;SDS011;29744;49.078;12.878;2022-11-20T07:11:29;1.73;;;1.05;;
44078;SDS011;29744;49.078;12.878;2022-11-20T07:16:29;1.23;;;0.90;;
44078;SDS011;29744;49.078;12.878;2022-11-20T07:21:30;1.42;;;0.93;;
44078;SDS011;29744;49.078;12.878;2022-11-20T07:26:30;2.00;;;1.10;;
44078;SDS011;29744;49.078;12.878;2022-11-20T07:31:30;2.20;;;1.25;;
44078;SDS011;29744;49.078;12.878;2022-11-20T07:36:31;1.70;;;1.00;;
44078;SDS011;29744;49.078;12.878;2022-11-20T07:41:31;1.40;;;0.93;;
44078;SDS011;29744;49.078;12.878;2022-11-20T07:46:31;1.73;;;1.00;;
44078;SDS011;29744;49.078;12.878;2022-11-20T07:51:32;1.50;;;1.00;;
44078;SDS011;29744;49.078;12.878;2022-11-20T07:56:32;1.33;;;0.80;;
44078;SDS011;29744;49.078;12.878;2022-11-20T08:01:32;1.60;;;0.90;;
44078;SDS011;29744;49.078;12.878;2022-11-20T08:06:33;1.40;;;0.90;;
44078;SDS011;29744;49.078;12.878;2022-11-20T08:11:34;1.65;;;1.00;;
44078;SDS011;29744;49.078;12.878;2022-11-20T08:16:53;1.30;;;0.98;;
44078;SDS011;29744;49.078;12.878;2022-11-20T08:21:54;1.15;;;0.80;;
44078;SDS011;29744;49.078;12.878;2022-11-20T08:26:56;1.35;;;0.90;;
44078;SDS011;29744;49.078;12.878;2022-11-20T08:31:58;1.38;;;0.73;;
44078;SDS011;29744;49.078;12.878;2022-11-20T08:36:59;1.45;;;0.75;;
44078;SDS011;29744;49.078;12.878;2022-11-20T08:42:02;1.02;;;0.82;;
44078;SDS011;29744;49.078;12.878;2022-11-20T08:47:06;1.23;;;0.88;;
44078;SDS011;29744;49.078;12.878;2022-11-20T08:52:06;1.67;;;1.17;;
44078;SDS011;29744;49.078;12.878;2022-11-20T08:57:06;2.17;;;1.40;;
44078;SDS011;29744;49.078;12.878;2022-11-20T09:02:07;4.72;;;3.10;;
44078;SDS011;29744;49.078;12.878;2022-11-20T09:07:07;5.63;;;3.45;;
44078;SDS011;29744;49.078;12.878;2022-11-20T09:12:08;5.18;;;3.53;;
44078;SDS011;29744;49.078;12.878;2022-11-20T09:17:09;5.18;;;3.70;;
44078;SDS011;29744;49.078;12.878;2022-11-20T09:22:13;6.18;;;3.10;;
44078;SDS011;29744;49.078;12.878;2022-11-20T09:27:13;4.45;;;3.08;;
44078;SDS011;29744;49.078;12.878;2022-11-20T09:32:14;4.72;;;2.97;;
44078;SDS011;29744;49.078;12.878;2022-11-20T09:37:14;4.28;;;2.70;;
44078;SDS011;29744;49.078;12.878;2022-11-20T09:53:03;4.35;;;2.75;;
44078;SDS011;29744;49.078;12.878;2022-11-20T09:58:24;3.97;;;2.78;;
44078;SDS011;29744;49.078;12.878;2022-11-20T10:09:06;4.05;;;2.70;;
44078;SDS011;29744;49.078;12.878;2022-11-20T10:14:16;4.15;;;2.80;;
44078;SDS011;29744;49.078;12.878;2022-11-20T10:24:48;3.95;;;2.70;;
44078;SDS011;29744;49.078;12.878;2022-11-20T10:30:14;4.13;;;2.45;;
44078;SDS011;29744;49.078;12.878;2022-11-20T10:40:43;3.50;;;2.22;;
44078;SDS011;29744;49.078;12.878;2022-11-20T10:56:00;3.53;;;2.25;;
44078;SDS011;29744;49.078;12.878;2022-11-20T11:01:11;4.05;;;2.80;;
44078;SDS011;29744;49.078;12.878;2022-11-20T11:11:32;3.63;;;2.50;;
44078;SDS011;29744;49.078;12.878;2022-11-20T11:16:33;3.47;;;2.30;;
44078;SDS011;29744;49.078;12.878;2022-11-20T11:21:34;3.30;;;2.40;;
44078;SDS011;29744;49.078;12.878;2022-11-20T11:26:35;3.25;;;2.17;;
44078;SDS011;29744;49.078;12.878;2022-11-20T11:31:36;4.45;;;2.40;;
44078;SDS011;29744;49.078;12.878;2022-11-20T11:36:36;3.90;;;2.60;;
44078;SDS011;29744;49.078;12.878;2022-11-20T11:41:36;3.50;;;2.13;;
44078;SDS011;29744;49.078;12.878;2022-11-20T11:46:37;3.17;;;2.00;;
44078;SDS011;29744;49.078;12.878;2022-11-20T11:57:00;3.05;;;2.05;;
44078;SDS011;29744;49.078;12.878;2022-11-20T12:02:08;3.70;;;2.40;;
44078;SDS011;29744;49.078;12.878;2022-11-20T12:12:40;6.88;;;4.00;;
44078;SDS011;29744;49.078;12.878;2022-11-20T12:17:45;8.18;;;4.10;;
44078;SDS011;29744;49.078;12.878;2022-11-20T12:22:50;7.53;;;3.88;;
44078;SDS011;29744;49.078;12.878;2022-11-20T12:28:37;8.20;;;3.78;;
44078;SDS011;29744;49.078;12.878;2022-11-20T12:44:08;8.38;;;4.03;;
44078;SDS011;29744;49.078;12.878;2022-11-20T12:50:02;5.00;;;3.33;;
44078;SDS011;29744;49.078;12.878;2022-11-20T13:00:47;6.05;;;3.53;;
44078;SDS011;29744;49.078;12.878;2022-11-20T13:06:15;6.45;;;3.88;;
44078;SDS011;29744;49.078;12.878;2022-11-20T13:22:23;5.30;;;3.35;;
44078;SDS011;29744;49.078;12.878;2022-11-20T13:27:47;6.57;;;3.20;;
44078;SDS011;29744;49.078;12.878;2022-11-20T13:38:01;5.15;;;3.00;;
44078;SDS011;29744;49.078;12.878;2022-11-20T13:43:15;4.70;;;3.15;;
44078;SDS011;29744;49.078;12.878;2022-11-20T13:48:22;6.47;;;3.60;;
44078;SDS011;29744;49.078;12.878;2022-11-20T14:03:53;4.95;;;3.08;;
44078;SDS011;29744;49.078;12.878;2022-11-20T14:08:54;4.55;;;3.00;;
44078;SDS011;29744;49.078;12.878;2022-11-20T14:14:10;5.50;;;3.58;;
44078;SDS011;29744;49.078;12.878;2022-11-20T14:24:22;7.23;;;3.30;;
44078;SDS011;29744;49.078;12.878;2022-11-20T14:29:26;5.45;;;3.05;;
44078;SDS011;29744;49.078;12.878;2022-11-20T14:34:30;5.05;;;3.08;;
44078;SDS011;29744;49.078;12.878;2022-11-20T14:44:36;3.97;;;2.92;;
44078;SDS011;29744;49.078;12.878;2022-11-20T14:49:37;4.63;;;3.00;;
44078;SDS011;29744;49.078;12.878;2022-11-20T14:54:45;4.63;;;2.85;;
44078;SDS011;29744;49.078;12.878;2022-11-20T14:59:46;5.00;;;3.03;;
44078;SDS011;29744;49.078;12.878;2022-11-20T15:04:50;3.80;;;2.60;;
44078;SDS011;29744;49.078;12.878;2022-11-20T15:15:05;3.78;;;2.58;;
44078;SDS011;29744;49.078;12.878;2022-11-20T15:20:16;5.25;;;3.05;;
44078;SDS011;29744;49.078;12.878;2022-11-20T15:25:17;4.07;;;2.70;;
44078;SDS011;29744;49.078;12.878;2022-11-20T15:30:19;3.90;;;2.58;;
44078;SDS011;29744;49.078;12.878;2022-11-20T15:35:20;4.28;;;2.65;;
44078;SDS011;29744;49.078;12.878;2022-11-20T15:40:20;3.40;;;2.47;;
44078;SDS011;29744;49.078;12.878;2022-11-20T15:45:21;7.50;;;2.55;;
44078;SDS011;29744;49.078;12.878;2022-11-20T15:50:21;3.75;;;2.45;;
44078;SDS011;29744;49.078;12.878;2022-11-20T15:55:25;4.00;;;2.33;;
44078;SDS011;29744;49.078;12.878;2022-11-20T16:00:26;4.30;;;2.63;;
44078;SDS011;29744;49.078;12.878;2022-11-20T16:05:29;3.70;;;2.40;;
44078;SDS011;29744;49.078;12.878;2022-11-20T16:10:30;3.70;;;2.50;;
44078;SDS011;29744;49.078;12.878;2022-11-20T16:15:30;4.18;;;2.60;;
44078;SDS011;29744;49.078;12.878;2022-11-20T16:20:50;3.38;;;2.20;;
44078;SDS011;29744;49.078;12.878;2022-11-20T16:25:52;3.78;;;2.45;;
44078;SDS011;29744;49.078;12.878;2022-11-20T16:30:52;3.80;;;2.38;;
44078;SDS011;29744;49.078;12.878;2022-11-20T16:35:52;3.78;;;2.38;;
44078;SDS011;29744;49.078;12.878;2022-11-20T16:40:53;4.00;;;2.50;;
44078;SDS011;29744;49.078;12.878;2022-11-20T16:46:00;3.78;;;2.30;;
44078;SDS011;29744;49.078;12.878;2022-11-20T16:51:03;4.43;;;2.50;;
44078;SDS011;29744;49.078;12.878;2022-11-20T16:56:12;3.72;;;2.50;;
44078;SDS011;29744;49.078;12.878;2022-11-20T17:01:17;3.08;;;2.00;;
44078;SDS011;29744;49.078;12.878;2022-11-20T17:06:21;3.75;;;2.17;;
44078;SDS011;29744;49.078;12.878;2022-11-20T17:11:23;3.75;;;2.20;;
44078;SDS011;29744;49.078;12.878;2022-11-20T17:16:24;4.00;;;2.15;;
44078;SDS011;29744;49.078;12.878;2022-11-20T17:21:25;3.60;;;2.20;;
44078;SDS011;29744;49.078;12.878;2022-11-20T17:26:26;3.53;;;2.10;;
44078;SDS011;29744;49.078;12.878;2022-11-20T17:31:28;3.88;;;2.25;;
44078;SDS011;29744;49.078;12.878;2022-11-20T17:36:29;3.10;;;1.85;;
44078;SDS011;29744;49.078;12.878;2022-11-20T17:41:30;3.42;;;1.90;;
44078;SDS011;29744;49.078;12.878;2022-11-20T17:46:31;4.20;;;2.20;;
44078;SDS011;29744;49.078;12.878;2022-11-20T17:51:32;3.35;;;2.00;;
44078;SDS011;29744;49.078;12.878;2022-11-20T17:56:36;3.25;;;1.85;;
44078;SDS011;29744;49.078;12.878;2022-11-20T18:01:55;3.17;;;2.00;;
44078;SDS011;29744;49.078;12.878;2022-11-20T18:06:55;3.50;;;2.03;;
44078;SDS011;29744;49.078;12.878;2022-11-20T18:11:56;2.95;;;1.83;;
44078;SDS011;29744;49.078;12.878;2022-11-20T18:17:14;3.30;;;1.92;;
44078;SDS011;29744;49.078;12.878;2022-11-20T18:22:15;3.45;;;1.95;;
44078;SDS011;29744;49.078;12.878;2022-11-20T18:27:19;2.92;;;1.90;;
44078;SDS011;29744;49.078;12.878;2022-11-20T18:32:20;2.83;;;1.80;;
44078;SDS011;29744;49.078;12.878;2022-11-20T18:37:21;3.78;;;2.00;;
44078;SDS011;29744;49.078;12.878;2022-11-20T18:42:21;3.22;;;1.80;;
44078;SDS011;29744;49.078;12.878;2022-11-20T18:47:39;3.28;;;2.00;;
44078;SDS011;29744;49.078;12.878;2022-11-20T18:52:40;3.22;;;1.90;;
44078;SDS011;29744;49.078;12.878;2022-11-20T18:57:43;2.58;;;1.63;;
44078;SDS011;29744;49.078;12.878;2022-11-20T19:02:43;2.65;;;1.70;;
44078;SDS011;29744;49.078;12.878;2022-11-20T19:07:43;2.92;;;1.73;;
44078;SDS011;29744;49.078;12.878;2022-11-20T19:12:44;2.90;;;1.70;;
44078;SDS011;29744;49.078;12.878;2022-11-20T19:17:44;3.05;;;1.88;;
44078;SDS011;29744;49.078;12.878;2022-11-20T19:22:48;3.03;;;1.90;;
44078;SDS011;29744;49.078;12.878;2022-11-20T19:27:49;2.95;;;1.90;;
44078;SDS011;29744;49.078;12.878;2022-11-20T19:32:49;3.17;;;1.88;;
44078;SDS011;29744;49.078;12.878;2022-11-20T19:37:50;2.42;;;1.60;;
44078;SDS011;29744;49.078;12.878;2022-11-20T19:42:50;2.30;;;1.60;;
44078;SDS011;29744;49.078;12.878;2022-11-20T19:47:51;2.47;;;1.50;;
44078;SDS011;29744;49.078;12.878;2022-11-20T19:52:51;2.92;;;1.83;;
44078;SDS011;29744;49.078;12.878;2022-11-20T19:57:51;2.30;;;1.40;;
44078;SDS011;29744;49.078;12.878;2022-11-20T20:02:52;2.45;;;1.50;;
44078;SDS011;29744;49.078;12.878;2022-11-20T20:07:52;2.63;;;1.42;;
44078;SDS011;29744;49.078;12.878;2022-11-20T20:12:52;2.70;;;1.60;;
44078;SDS011;29744;49.078;12.878;2022-11-20T20:17:53;3.72;;;1.83;;
44078;SDS011;29744;49.078;12.878;2022-11-20T20:22:54;2.70;;;1.60;;
44078;SDS011;29744;49.078;12.878;2022-11-20T20:27:54;2.03;;;1.15;;
44078;SDS011;29744;49.078;12.878;2022-11-20T20:32:54;1.98;;;1.42;;
44078;SDS011;29744;49.078;12.878;2022-11-20T20:37:55;2.67;;;1.48;;
44078;SDS011;29744;49.078;12.878;2022-11-20T20:42:55;2.45;;;1.50;;
44078;SDS011;29744;49.078;12.878;2022-11-20T20:47:55;2.13;;;1.40;;
44078;SDS011;29744;49.078;12.878;2022-11-20T20:52:56;2.20;;;1.40;;
44078;SDS011;29744;49.078;12.878;2022-11-20T20:57:56;2.08;;;1.40;;
44078;SDS011;29744;49.078;12.878;2022-11-20T21:02:56;2.33;;;1.50;;
44078;SDS011;29744;49.078;12.878;2022-11-20T21:07:56;2.70;;;1.42;;
44078;SDS011;29744;49.078;12.878;2022-11-20T21:13:15;2.97;;;1.63;;
44078;SDS011;29744;49.078;12.878;2022-11-20T21:18:17;2.45;;;1.38;;
44078;SDS011;29744;49.078;12.878;2022-11-20T21:23:18;1.77;;;1.20;;
44078;SDS011;29744;49.078;12.878;2022-11-20T21:28:19;2.40;;;1.42;;
44078;SDS011;29744;49.078;12.878;2022-11-20T21:33:19;2.40;;;1.50;;
44078;SDS011;29744;49.078;12.878;2022-11-20T21:38:19;1.75;;;1.10;;
44078;SDS011;29744;49.078;12.878;2022-11-20T21:43:20;2.33;;;1.40;;
44078;SDS011;29744;49.078;12.878;2022-11-20T21:48:20;2.15;;;1.30;;
44078;SDS011;29744;49.078;12.878;2022-11-20T21:53:20;2.08;;;1.30;;
44078;SDS011;29744;49.078;12.878;2022-11-20T21:58:20;2.55;;;1.45;;
44078;SDS011;29744;49.078;12.878;2022-11-20T22:03:21;2.65;;;1.50;;
44078;SDS011;29744;49.078;12.878;2022-11-20T22:08:22;1.88;;;1.30;;
44078;SDS011;29744;49.078;12.878;2022-11-20T22:13:26;2.83;;;1.50;;
44078;SDS011;29744;49.078;12.878;2022-11-20T22:18:49;1.95;;;1.20;;
44078;SDS011;29744;49.078;12.878;2022-11-20T22:23:51;2.13;;;1.30;;
44078;SDS011;29744;49.078;12.878;2022-11-20T22:28:53;1.80;;;1.15;;
44078;SDS011;29744;49.078;12.878;2022-11-20T22:33:55;2.47;;;1.40;;
44078;SDS011;29744;49.078;12.878;2022-11-20T22:38:56;3.00;;;1.40;;
44078;SDS011;29744;49.078;12.878;2022-11-20T22:43:58;1.70;;;1.20;;
44078;SDS011;29744;49.078;12.878;2022-11-20T22:49:03;1.92;;;1.20;;
44078;SDS011;29744;49.078;12.878;2022-11-20T22:54:06;2.60;;;1.52;;
44078;SDS011;29744;49.078;12.878;2022-11-20T22:59:09;2.53;;;1.27;;
44078;SDS011;29744;49.078;12.878;2022-11-20T23:04:10;2.58;;;1.42;;
44078;SDS011;29744;49.078;12.878;2022-11-20T23:09:10;2.00;;;1.20;;
44078;SDS011;29744;49.078;12.878;2022-11-20T23:14:12;1.67;;;1.15;;
44078;SDS011;29744;49.078;12.878;2022-11-20T23:19:14;1.73;;;1.27;;
44078;SDS011;29744;49.078;12.878;2022-11-20T23:24:14;1.77;;;1.13;;
44078;SDS011;29744;49.078;12.878;2022-11-20T23:29:15;1.70;;;1.02;;
44078;SDS011;29744;49.078;12.878;2022-11-20T23:34:15;1.77;;;1.10;;
44078;SDS011;29744;49.078;12.878;2022-11-20T23:39:15;1.85;;;1.10;;
44078;SDS011;29744;49.078;12.878;2022-11-20T23:44:16;2.20;;;1.30;;
44078;SDS011;29744;49.078;12.878;2022-11-20T23:49:16;2.17;;;1.20;;
44078;SDS011;29744;49.078;12.878;2022-11-20T23:54:16;2.47;;;1.30;;
44078;SDS011;29744;49.078;12.878;2022-11-20T23:59:16;2.00;;;1.10;;
